sensor_id;sensor_type;location;lat;lon;timestamp;temperature;humidity
45283;DHT22;31023;44.994;1.796;2024-03-17T00:01:35;10.40;98.60
45283;DHT22;31023;44.994;1.796;2024-03-17T00:04:01;10.30;98.90
45283;DHT22;31023;44.994;1.796;2024-03-17T00:06:29;10.30;98.80
45283;DHT22;31023;44.994;1.796;2024-03-17T00:08:54;10.20;99.00
45283;DHT22;31023;44.994;1.796;2024-03-17T00:11:20;10.30;98.90
45283;DHT22;31023;44.994;1.796;2024-03-17T00:13:46;10.20;99.10
45283;DHT22;31023;44.994;1.796;2024-03-17T00:16:12;10.10;99.40
45283;DHT22;31023;44.994;1.796;2024-03-17T00:18:38;10.00;99.70
45283;DHT22;31023;44.994;1.796;2024-03-17T00:21:04;10.00;99.80
45283;DHT22;31023;44.994;1.796;2024-03-17T00:23:30;10.00;99.90
45283;DHT22;31023;44.994;1.796;2024-03-17T00:25:55;10.00;99.90
45283;DHT22;31023;44.994;1.796;2024-03-17T00:28:21;9.90;99.90
45283;DHT22;31023;44.994;1.796;2024-03-17T00:30:46;9.90;99.90
45283;DHT22;31023;44.994;1.796;2024-03-17T00:33:12;10.00;99.70
45283;DHT22;31023;44.994;1.796;2024-03-17T00:35:39;10.10;99.60
45283;DHT22;31023;44.994;1.796;2024-03-17T00:38:05;10.00;99.50
45283;DHT22;31023;44.994;1.796;2024-03-17T00:40:36;10.00;99.70
45283;DHT22;31023;44.994;1.796;2024-03-17T00:43:02;10.10;99.40
45283;DHT22;31023;44.994;1.796;2024-03-17T00:45:27;10.10;99.20
45283;DHT22;31023;44.994;1.796;2024-03-17T00:47:53;10.10;99.20
45283;DHT22;31023;44.994;1.796;2024-03-17T00:50:19;10.10;99.30
45283;DHT22;31023;44.994;1.796;2024-03-17T00:52:44;10.00;99.40
45283;DHT22;31023;44.994;1.796;2024-03-17T00:55:10;10.10;99.40
45283;DHT22;31023;44.994;1.796;2024-03-17T00:57:36;10.00;99.60
45283;DHT22;31023;44.994;1.796;2024-03-17T01:00:03;9.90;99.70
45283;DHT22;31023;44.994;1.796;2024-03-17T01:02:28;9.90;99.70
45283;DHT22;31023;44.994;1.796;2024-03-17T01:04:54;9.90;99.80
45283;DHT22;31023;44.994;1.796;2024-03-17T01:07:19;9.90;99.80
45283;DHT22;31023;44.994;1.796;2024-03-17T01:09:46;9.90;99.90
45283;DHT22;31023;44.994;1.796;2024-03-17T01:12:12;9.80;99.90
45283;DHT22;31023;44.994;1.796;2024-03-17T01:14:38;9.90;99.90
45283;DHT22;31023;44.994;1.796;2024-03-17T01:17:04;9.80;99.90
45283;DHT22;31023;44.994;1.796;2024-03-17T01:19:30;9.70;99.90
45283;DHT22;31023;44.994;1.796;2024-03-17T01:21:56;9.70;99.90
45283;DHT22;31023;44.994;1.796;2024-03-17T01:24:21;9.70;99.90
45283;DHT22;31023;44.994;1.796;2024-03-17T01:26:47;9.80;99.90
45283;DHT22;31023;44.994;1.796;2024-03-17T01:29:13;9.90;99.90
45283;DHT22;31023;44.994;1.796;2024-03-17T01:31:38;9.90;99.90
45283;DHT22;31023;44.994;1.796;2024-03-17T01:34:04;10.00;99.90
45283;DHT22;31023;44.994;1.796;2024-03-17T01:36:30;10.10;99.90
45283;DHT22;31023;44.994;1.796;2024-03-17T01:38:55;10.10;99.90
45283;DHT22;31023;44.994;1.796;2024-03-17T01:41:21;10.00;99.90
45283;DHT22;31023;44.994;1.796;2024-03-17T01:43:47;10.00;99.90
45283;DHT22;31023;44.994;1.796;2024-03-17T01:46:13;10.00;99.90
45283;DHT22;31023;44.994;1.796;2024-03-17T01:48:39;9.90;99.90
45283;DHT22;31023;44.994;1.796;2024-03-17T01:51:05;9.90;99.90
45283;DHT22;31023;44.994;1.796;2024-03-17T01:53:30;9.80;99.90
45283;DHT22;31023;44.994;1.796;2024-03-17T01:55:56;9.80;99.90
45283;DHT22;31023;44.994;1.796;2024-03-17T01:58:24;9.80;99.90
45283;DHT22;31023;44.994;1.796;2024-03-17T02:00:50;9.70;99.90
45283;DHT22;31023;44.994;1.796;2024-03-17T02:03:17;9.80;99.90
45283;DHT22;31023;44.994;1.796;2024-03-17T02:05:43;9.80;99.90
45283;DHT22;31023;44.994;1.796;2024-03-17T02:08:09;9.80;99.90
45283;DHT22;31023;44.994;1.796;2024-03-17T02:10:35;9.70;99.90
45283;DHT22;31023;44.994;1.796;2024-03-17T02:13:01;9.70;99.90
45283;DHT22;31023;44.994;1.796;2024-03-17T02:15:28;9.70;99.90
45283;DHT22;31023;44.994;1.796;2024-03-17T02:17:54;9.70;99.90
45283;DHT22;31023;44.994;1.796;2024-03-17T02:20:20;9.80;99.90
45283;DHT22;31023;44.994;1.796;2024-03-17T02:22:50;9.80;99.90
45283;DHT22;31023;44.994;1.796;2024-03-17T02:25:15;9.80;99.90
45283;DHT22;31023;44.994;1.796;2024-03-17T02:27:41;9.80;99.90
45283;DHT22;31023;44.994;1.796;2024-03-17T02:30:07;9.80;99.90
45283;DHT22;31023;44.994;1.796;2024-03-17T02:32:34;9.80;99.90
45283;DHT22;31023;44.994;1.796;2024-03-17T02:35:00;9.80;99.90
45283;DHT22;31023;44.994;1.796;2024-03-17T02:37:25;9.80;99.90
45283;DHT22;31023;44.994;1.796;2024-03-17T02:39:52;9.70;99.90
45283;DHT22;31023;44.994;1.796;2024-03-17T02:42:18;9.70;99.90
45283;DHT22;31023;44.994;1.796;2024-03-17T02:44:44;9.70;99.90
45283;DHT22;31023;44.994;1.796;2024-03-17T02:47:10;9.60;99.90
45283;DHT22;31023;44.994;1.796;2024-03-17T02:49:36;9.60;99.90
45283;DHT22;31023;44.994;1.796;2024-03-17T02:52:06;9.60;99.90
45283;DHT22;31023;44.994;1.796;2024-03-17T02:54:35;9.50;99.90
45283;DHT22;31023;44.994;1.796;2024-03-17T02:57:01;9.50;99.90
45283;DHT22;31023;44.994;1.796;2024-03-17T02:59:27;9.50;99.90
45283;DHT22;31023;44.994;1.796;2024-03-17T03:01:52;9.60;99.90
45283;DHT22;31023;44.994;1.796;2024-03-17T03:04:18;9.60;99.90
45283;DHT22;31023;44.994;1.796;2024-03-17T03:06:44;9.50;99.90
45283;DHT22;31023;44.994;1.796;2024-03-17T03:09:09;9.40;99.90
45283;DHT22;31023;44.994;1.796;2024-03-17T03:11:42;9.40;99.90
45283;DHT22;31023;44.994;1.796;2024-03-17T03:14:07;9.30;99.90
45283;DHT22;31023;44.994;1.796;2024-03-17T03:16:33;9.30;99.90
45283;DHT22;31023;44.994;1.796;2024-03-17T03:18:59;9.40;99.90
45283;DHT22;31023;44.994;1.796;2024-03-17T03:21:24;9.40;99.90
45283;DHT22;31023;44.994;1.796;2024-03-17T03:23:50;9.40;99.90
45283;DHT22;31023;44.994;1.796;2024-03-17T03:26:16;9.40;99.90
45283;DHT22;31023;44.994;1.796;2024-03-17T03:28:43;9.40;99.90
45283;DHT22;31023;44.994;1.796;2024-03-17T03:31:12;9.40;99.90
45283;DHT22;31023;44.994;1.796;2024-03-17T03:33:40;9.40;99.90
45283;DHT22;31023;44.994;1.796;2024-03-17T03:36:15;9.40;99.90
45283;DHT22;31023;44.994;1.796;2024-03-17T03:38:42;9.50;99.90
45283;DHT22;31023;44.994;1.796;2024-03-17T03:41:12;9.50;99.90
45283;DHT22;31023;44.994;1.796;2024-03-17T03:43:38;9.60;99.90
45283;DHT22;31023;44.994;1.796;2024-03-17T03:46:04;9.60;99.90
45283;DHT22;31023;44.994;1.796;2024-03-17T03:48:30;9.60;99.90
45283;DHT22;31023;44.994;1.796;2024-03-17T03:50:55;9.60;99.90
45283;DHT22;31023;44.994;1.796;2024-03-17T03:53:21;9.60;99.90
45283;DHT22;31023;44.994;1.796;2024-03-17T03:55:48;9.70;99.90
45283;DHT22;31023;44.994;1.796;2024-03-17T03:58:14;9.60;99.90
45283;DHT22;31023;44.994;1.796;2024-03-17T04:00:39;9.60;99.90
45283;DHT22;31023;44.994;1.796;2024-03-17T04:03:05;9.50;99.90
45283;DHT22;31023;44.994;1.796;2024-03-17T04:05:31;9.50;99.90
45283;DHT22;31023;44.994;1.796;2024-03-17T04:07:56;9.50;99.90
45283;DHT22;31023;44.994;1.796;2024-03-17T04:10:22;9.50;99.90
45283;DHT22;31023;44.994;1.796;2024-03-17T04:12:49;9.50;99.90
45283;DHT22;31023;44.994;1.796;2024-03-17T04:15:15;9.40;99.90
45283;DHT22;31023;44.994;1.796;2024-03-17T04:17:40;9.40;99.90
45283;DHT22;31023;44.994;1.796;2024-03-17T04:20:10;9.40;99.90
45283;DHT22;31023;44.994;1.796;2024-03-17T04:22:39;9.40;99.90
45283;DHT22;31023;44.994;1.796;2024-03-17T04:25:04;9.40;99.90
45283;DHT22;31023;44.994;1.796;2024-03-17T04:27:30;9.50;99.90
45283;DHT22;31023;44.994;1.796;2024-03-17T04:29:56;9.60;99.90
45283;DHT22;31023;44.994;1.796;2024-03-17T04:32:23;9.60;99.90
45283;DHT22;31023;44.994;1.796;2024-03-17T04:34:48;9.50;99.90
45283;DHT22;31023;44.994;1.796;2024-03-17T04:37:14;9.60;99.90
45283;DHT22;31023;44.994;1.796;2024-03-17T04:39:40;9.70;99.90
45283;DHT22;31023;44.994;1.796;2024-03-17T04:42:08;9.70;99.90
45283;DHT22;31023;44.994;1.796;2024-03-17T04:44:34;9.60;99.90
45283;DHT22;31023;44.994;1.796;2024-03-17T04:46:59;9.60;99.90
45283;DHT22;31023;44.994;1.796;2024-03-17T04:49:25;9.60;99.90
45283;DHT22;31023;44.994;1.796;2024-03-17T04:51:51;9.50;99.90
45283;DHT22;31023;44.994;1.796;2024-03-17T04:54:16;9.50;99.90
45283;DHT22;31023;44.994;1.796;2024-03-17T04:56:42;9.50;99.90
45283;DHT22;31023;44.994;1.796;2024-03-17T04:59:07;9.40;99.90
45283;DHT22;31023;44.994;1.796;2024-03-17T05:01:33;9.40;99.90
45283;DHT22;31023;44.994;1.796;2024-03-17T05:04:04;9.40;99.90
45283;DHT22;31023;44.994;1.796;2024-03-17T05:06:30;9.40;99.90
45283;DHT22;31023;44.994;1.796;2024-03-17T05:08:55;9.40;99.90
45283;DHT22;31023;44.994;1.796;2024-03-17T05:11:21;9.30;99.90
45283;DHT22;31023;44.994;1.796;2024-03-17T05:13:49;9.30;99.90
45283;DHT22;31023;44.994;1.796;2024-03-17T05:16:14;9.30;99.90
45283;DHT22;31023;44.994;1.796;2024-03-17T05:18:41;9.30;99.90
45283;DHT22;31023;44.994;1.796;2024-03-17T05:21:06;9.30;99.90
45283;DHT22;31023;44.994;1.796;2024-03-17T05:23:33;9.40;99.90
45283;DHT22;31023;44.994;1.796;2024-03-17T05:25:58;9.30;99.90
45283;DHT22;31023;44.994;1.796;2024-03-17T05:28:24;9.40;99.90
45283;DHT22;31023;44.994;1.796;2024-03-17T05:30:51;9.40;99.90
45283;DHT22;31023;44.994;1.796;2024-03-17T05:33:20;9.40;99.90
45283;DHT22;31023;44.994;1.796;2024-03-17T05:35:51;9.50;99.90
45283;DHT22;31023;44.994;1.796;2024-03-17T05:38:21;9.50;99.90
45283;DHT22;31023;44.994;1.796;2024-03-17T05:40:56;9.50;99.90
45283;DHT22;31023;44.994;1.796;2024-03-17T05:43:23;9.60;99.90
45283;DHT22;31023;44.994;1.796;2024-03-17T05:45:51;9.60;99.90
45283;DHT22;31023;44.994;1.796;2024-03-17T05:48:17;9.70;99.80
45283;DHT22;31023;44.994;1.796;2024-03-17T05:50:42;9.70;99.70
45283;DHT22;31023;44.994;1.796;2024-03-17T05:53:08;9.60;99.80
45283;DHT22;31023;44.994;1.796;2024-03-17T05:55:36;9.50;99.90
45283;DHT22;31023;44.994;1.796;2024-03-17T05:58:02;9.50;99.90
45283;DHT22;31023;44.994;1.796;2024-03-17T06:00:28;9.50;99.90
45283;DHT22;31023;44.994;1.796;2024-03-17T06:02:54;9.60;99.90
45283;DHT22;31023;44.994;1.796;2024-03-17T06:05:20;9.60;99.90
45283;DHT22;31023;44.994;1.796;2024-03-17T06:07:45;9.60;99.90
45283;DHT22;31023;44.994;1.796;2024-03-17T06:10:12;9.60;99.90
45283;DHT22;31023;44.994;1.796;2024-03-17T06:12:38;9.60;99.90
45283;DHT22;31023;44.994;1.796;2024-03-17T06:15:03;9.60;99.90
45283;DHT22;31023;44.994;1.796;2024-03-17T06:17:29;9.60;99.90
45283;DHT22;31023;44.994;1.796;2024-03-17T06:19:55;9.60;99.90
45283;DHT22;31023;44.994;1.796;2024-03-17T06:22:22;9.70;99.90
45283;DHT22;31023;44.994;1.796;2024-03-17T06:24:48;9.70;99.90
45283;DHT22;31023;44.994;1.796;2024-03-17T06:27:14;9.70;99.90
45283;DHT22;31023;44.994;1.796;2024-03-17T06:29:40;9.60;99.90
45283;DHT22;31023;44.994;1.796;2024-03-17T06:32:05;9.70;99.90
45283;DHT22;31023;44.994;1.796;2024-03-17T06:34:31;9.70;99.90
45283;DHT22;31023;44.994;1.796;2024-03-17T06:36:57;9.80;99.80
45283;DHT22;31023;44.994;1.796;2024-03-17T06:39:24;9.90;99.40
45283;DHT22;31023;44.994;1.796;2024-03-17T06:41:50;10.10;99.50
45283;DHT22;31023;44.994;1.796;2024-03-17T06:44:15;10.20;98.90
45283;DHT22;31023;44.994;1.796;2024-03-17T06:46:41;10.40;98.50
45283;DHT22;31023;44.994;1.796;2024-03-17T06:49:06;10.60;97.70
45283;DHT22;31023;44.994;1.796;2024-03-17T06:51:32;10.80;97.20
45283;DHT22;31023;44.994;1.796;2024-03-17T06:53:58;10.70;97.30
45283;DHT22;31023;44.994;1.796;2024-03-17T06:56:24;10.70;97.10
45283;DHT22;31023;44.994;1.796;2024-03-17T06:58:50;10.70;97.20
45283;DHT22;31023;44.994;1.796;2024-03-17T07:01:17;10.90;96.80
45283;DHT22;31023;44.994;1.796;2024-03-17T07:03:44;11.00;96.40
45283;DHT22;31023;44.994;1.796;2024-03-17T07:06:10;10.90;96.50
45283;DHT22;31023;44.994;1.796;2024-03-17T07:08:35;10.90;97.00
45283;DHT22;31023;44.994;1.796;2024-03-17T07:11:05;11.10;96.80
45283;DHT22;31023;44.994;1.796;2024-03-17T07:13:32;11.20;96.10
45283;DHT22;31023;44.994;1.796;2024-03-17T07:15:59;11.50;95.40
45283;DHT22;31023;44.994;1.796;2024-03-17T07:18:25;12.10;94.50
45283;DHT22;31023;44.994;1.796;2024-03-17T07:20:50;12.60;93.20
45283;DHT22;31023;44.994;1.796;2024-03-17T07:23:16;12.90;92.60
45283;DHT22;31023;44.994;1.796;2024-03-17T07:25:42;12.90;92.70
45283;DHT22;31023;44.994;1.796;2024-03-17T07:28:08;12.90;92.20
45283;DHT22;31023;44.994;1.796;2024-03-17T07:30:34;13.20;91.70
45283;DHT22;31023;44.994;1.796;2024-03-17T07:33:00;13.20;91.50
45283;DHT22;31023;44.994;1.796;2024-03-17T07:35:26;13.50;91.10
45283;DHT22;31023;44.994;1.796;2024-03-17T07:37:51;13.60;90.50
45283;DHT22;31023;44.994;1.796;2024-03-17T07:40:17;13.60;90.40
45283;DHT22;31023;44.994;1.796;2024-03-17T07:42:42;13.50;91.00
45283;DHT22;31023;44.994;1.796;2024-03-17T07:45:08;13.10;91.40
45283;DHT22;31023;44.994;1.796;2024-03-17T07:47:34;13.20;91.80
45283;DHT22;31023;44.994;1.796;2024-03-17T07:50:03;13.00;91.80
45283;DHT22;31023;44.994;1.796;2024-03-17T07:52:30;13.30;91.90
45283;DHT22;31023;44.994;1.796;2024-03-17T07:54:56;14.20;90.80
45283;DHT22;31023;44.994;1.796;2024-03-17T07:57:22;14.80;88.80
45283;DHT22;31023;44.994;1.796;2024-03-17T07:59:49;14.20;89.60
45283;DHT22;31023;44.994;1.796;2024-03-17T08:02:15;13.80;89.30
45283;DHT22;31023;44.994;1.796;2024-03-17T08:04:40;13.60;90.70
45283;DHT22;31023;44.994;1.796;2024-03-17T08:07:07;13.30;90.30
45283;DHT22;31023;44.994;1.796;2024-03-17T08:09:33;13.30;90.90
45283;DHT22;31023;44.994;1.796;2024-03-17T08:11:58;13.30;91.00
45283;DHT22;31023;44.994;1.796;2024-03-17T08:14:24;13.20;91.20
45283;DHT22;31023;44.994;1.796;2024-03-17T08:16:50;13.20;91.60
45283;DHT22;31023;44.994;1.796;2024-03-17T08:19:15;13.30;91.40
45283;DHT22;31023;44.994;1.796;2024-03-17T08:21:41;13.60;91.30
45283;DHT22;31023;44.994;1.796;2024-03-17T08:24:06;14.10;90.70
45283;DHT22;31023;44.994;1.796;2024-03-17T08:26:33;14.70;90.40
45283;DHT22;31023;44.994;1.796;2024-03-17T08:28:59;14.60;89.20
45283;DHT22;31023;44.994;1.796;2024-03-17T08:31:24;14.50;89.90
45283;DHT22;31023;44.994;1.796;2024-03-17T08:33:50;14.60;88.50
45283;DHT22;31023;44.994;1.796;2024-03-17T08:36:16;14.90;87.40
45283;DHT22;31023;44.994;1.796;2024-03-17T08:38:43;14.80;88.00
45283;DHT22;31023;44.994;1.796;2024-03-17T08:41:09;14.50;88.10
45283;DHT22;31023;44.994;1.796;2024-03-17T08:43:35;14.30;89.10
45283;DHT22;31023;44.994;1.796;2024-03-17T08:46:04;14.40;89.00
45283;DHT22;31023;44.994;1.796;2024-03-17T08:48:32;14.40;88.70
45283;DHT22;31023;44.994;1.796;2024-03-17T08:50:58;14.40;88.70
45283;DHT22;31023;44.994;1.796;2024-03-17T08:53:24;14.30;90.10
45283;DHT22;31023;44.994;1.796;2024-03-17T08:55:50;14.90;88.70
45283;DHT22;31023;44.994;1.796;2024-03-17T08:58:16;15.90;86.00
45283;DHT22;31023;44.994;1.796;2024-03-17T09:00:42;17.00;79.90
45283;DHT22;31023;44.994;1.796;2024-03-17T09:03:08;17.30;78.00
45283;DHT22;31023;44.994;1.796;2024-03-17T09:05:36;17.30;76.60
45283;DHT22;31023;44.994;1.796;2024-03-17T09:08:01;17.50;76.90
45283;DHT22;31023;44.994;1.796;2024-03-17T09:10:27;17.00;77.80
45283;DHT22;31023;44.994;1.796;2024-03-17T09:12:52;16.70;78.40
45283;DHT22;31023;44.994;1.796;2024-03-17T09:15:18;16.90;78.80
45283;DHT22;31023;44.994;1.796;2024-03-17T09:17:43;16.90;78.90
45283;DHT22;31023;44.994;1.796;2024-03-17T09:20:10;16.60;77.60
45283;DHT22;31023;44.994;1.796;2024-03-17T09:22:37;16.30;79.40
45283;DHT22;31023;44.994;1.796;2024-03-17T09:25:07;16.30;80.70
45283;DHT22;31023;44.994;1.796;2024-03-17T09:27:32;16.50;79.80
45283;DHT22;31023;44.994;1.796;2024-03-17T09:29:59;16.50;79.50
45283;DHT22;31023;44.994;1.796;2024-03-17T09:32:25;16.70;80.00
45283;DHT22;31023;44.994;1.796;2024-03-17T09:34:50;16.80;79.10
45283;DHT22;31023;44.994;1.796;2024-03-17T09:37:16;17.00;79.60
45283;DHT22;31023;44.994;1.796;2024-03-17T09:39:42;17.40;79.00
45283;DHT22;31023;44.994;1.796;2024-03-17T09:42:16;17.80;79.70
45283;DHT22;31023;44.994;1.796;2024-03-17T09:44:42;18.10;77.40
45283;DHT22;31023;44.994;1.796;2024-03-17T09:47:08;17.70;77.70
45283;DHT22;31023;44.994;1.796;2024-03-17T09:49:35;17.50;74.60
45283;DHT22;31023;44.994;1.796;2024-03-17T09:52:01;17.90;75.30
45283;DHT22;31023;44.994;1.796;2024-03-17T09:54:27;19.30;70.60
45283;DHT22;31023;44.994;1.796;2024-03-17T09:56:52;19.80;67.00
45283;DHT22;31023;44.994;1.796;2024-03-17T09:59:18;20.00;67.30
45283;DHT22;31023;44.994;1.796;2024-03-17T10:01:44;19.90;64.90
45283;DHT22;31023;44.994;1.796;2024-03-17T10:04:14;19.80;68.50
45283;DHT22;31023;44.994;1.796;2024-03-17T10:06:48;19.50;67.80
45283;DHT22;31023;44.994;1.796;2024-03-17T10:09:16;18.70;68.80
45283;DHT22;31023;44.994;1.796;2024-03-17T10:11:51;18.30;69.20
45283;DHT22;31023;44.994;1.796;2024-03-17T10:14:16;18.30;69.20
45283;DHT22;31023;44.994;1.796;2024-03-17T10:16:42;18.70;67.60
45283;DHT22;31023;44.994;1.796;2024-03-17T10:19:13;18.70;68.30
45283;DHT22;31023;44.994;1.796;2024-03-17T10:21:40;19.20;66.30
45283;DHT22;31023;44.994;1.796;2024-03-17T10:26:41;20.30;68.10
45283;DHT22;31023;44.994;1.796;2024-03-17T10:31:45;19.50;65.40
45283;DHT22;31023;44.994;1.796;2024-03-17T10:34:14;18.80;72.40
45283;DHT22;31023;44.994;1.796;2024-03-17T10:36:40;18.60;70.60
45283;DHT22;31023;44.994;1.796;2024-03-17T10:39:14;18.50;74.60
45283;DHT22;31023;44.994;1.796;2024-03-17T10:41:42;18.30;74.90
45283;DHT22;31023;44.994;1.796;2024-03-17T10:44:08;18.20;73.30
45283;DHT22;31023;44.994;1.796;2024-03-17T10:46:34;18.30;74.00
45283;DHT22;31023;44.994;1.796;2024-03-17T10:49:00;18.30;76.90
45283;DHT22;31023;44.994;1.796;2024-03-17T10:51:25;18.30;75.40
45283;DHT22;31023;44.994;1.796;2024-03-17T10:53:51;18.40;75.10
45283;DHT22;31023;44.994;1.796;2024-03-17T10:56:18;18.50;74.40
45283;DHT22;31023;44.994;1.796;2024-03-17T10:58:44;18.70;73.90
45283;DHT22;31023;44.994;1.796;2024-03-17T11:01:16;18.60;76.20
45283;DHT22;31023;44.994;1.796;2024-03-17T11:03:45;18.50;73.50
45283;DHT22;31023;44.994;1.796;2024-03-17T11:06:12;18.60;72.80
45283;DHT22;31023;44.994;1.796;2024-03-17T11:08:38;18.80;73.30
45283;DHT22;31023;44.994;1.796;2024-03-17T11:11:07;18.80;73.80
45283;DHT22;31023;44.994;1.796;2024-03-17T11:13:34;18.70;74.40
45283;DHT22;31023;44.994;1.796;2024-03-17T11:16:02;18.60;75.70
45283;DHT22;31023;44.994;1.796;2024-03-17T11:18:36;18.30;74.80
45283;DHT22;31023;44.994;1.796;2024-03-17T11:21:19;18.20;75.10
45283;DHT22;31023;44.994;1.796;2024-03-17T11:24:02;18.20;75.40
45283;DHT22;31023;44.994;1.796;2024-03-17T11:26:32;18.40;73.00
45283;DHT22;31023;44.994;1.796;2024-03-17T11:28:58;18.70;72.40
45283;DHT22;31023;44.994;1.796;2024-03-17T11:36:53;19.00;71.70
45283;DHT22;31023;44.994;1.796;2024-03-17T11:39:19;19.30;70.60
45283;DHT22;31023;44.994;1.796;2024-03-17T11:41:53;19.50;69.90
45283;DHT22;31023;44.994;1.796;2024-03-17T11:46:52;19.60;68.70
45283;DHT22;31023;44.994;1.796;2024-03-17T11:49:34;19.80;69.40
45283;DHT22;31023;44.994;1.796;2024-03-17T11:52:03;19.90;71.20
45283;DHT22;31023;44.994;1.796;2024-03-17T11:54:30;19.70;69.70
45283;DHT22;31023;44.994;1.796;2024-03-17T11:56:59;19.90;70.80
45283;DHT22;31023;44.994;1.796;2024-03-17T11:59:25;19.80;69.30
45283;DHT22;31023;44.994;1.796;2024-03-17T12:01:51;20.00;68.80
45283;DHT22;31023;44.994;1.796;2024-03-17T12:04:17;20.30;69.70
45283;DHT22;31023;44.994;1.796;2024-03-17T12:06:44;20.40;72.50
45283;DHT22;31023;44.994;1.796;2024-03-17T12:09:20;20.50;73.10
45283;DHT22;31023;44.994;1.796;2024-03-17T12:11:46;20.70;72.00
45283;DHT22;31023;44.994;1.796;2024-03-17T12:14:14;20.70;70.70
45283;DHT22;31023;44.994;1.796;2024-03-17T12:16:46;20.60;69.40
45283;DHT22;31023;44.994;1.796;2024-03-17T12:19:13;20.70;70.30
45283;DHT22;31023;44.994;1.796;2024-03-17T12:21:59;20.70;68.70
45283;DHT22;31023;44.994;1.796;2024-03-17T12:24:26;20.80;70.20
45283;DHT22;31023;44.994;1.796;2024-03-17T12:26:52;20.80;69.60
45283;DHT22;31023;44.994;1.796;2024-03-17T12:32:02;20.70;68.80
45283;DHT22;31023;44.994;1.796;2024-03-17T12:34:28;20.60;69.90
45283;DHT22;31023;44.994;1.796;2024-03-17T12:36:54;20.60;69.80
45283;DHT22;31023;44.994;1.796;2024-03-17T12:42:00;20.50;68.80
45283;DHT22;31023;44.994;1.796;2024-03-17T12:44:27;20.40;66.60
45283;DHT22;31023;44.994;1.796;2024-03-17T12:47:02;20.10;68.20
45283;DHT22;31023;44.994;1.796;2024-03-17T12:49:28;20.20;68.20
45283;DHT22;31023;44.994;1.796;2024-03-17T12:51:54;20.00;69.70
45283;DHT22;31023;44.994;1.796;2024-03-17T12:54:20;19.90;71.40
45283;DHT22;31023;44.994;1.796;2024-03-17T12:56:46;19.60;70.10
45283;DHT22;31023;44.994;1.796;2024-03-17T12:59:40;19.60;71.60
45283;DHT22;31023;44.994;1.796;2024-03-17T13:02:24;19.80;71.30
45283;DHT22;31023;44.994;1.796;2024-03-17T13:07:35;19.80;68.60
45283;DHT22;31023;44.994;1.796;2024-03-17T13:10:01;20.10;69.70
45283;DHT22;31023;44.994;1.796;2024-03-17T13:12:28;20.10;69.00
45283;DHT22;31023;44.994;1.796;2024-03-17T13:14:53;20.30;67.60
45283;DHT22;31023;44.994;1.796;2024-03-17T13:17:19;20.40;68.00
45283;DHT22;31023;44.994;1.796;2024-03-17T13:19:45;20.40;67.60
45283;DHT22;31023;44.994;1.796;2024-03-17T13:22:11;20.70;68.60
45283;DHT22;31023;44.994;1.796;2024-03-17T13:24:37;20.90;68.10
45283;DHT22;31023;44.994;1.796;2024-03-17T13:27:02;20.60;66.80
45283;DHT22;31023;44.994;1.796;2024-03-17T13:29:31;20.50;66.40
45283;DHT22;31023;44.994;1.796;2024-03-17T13:31:58;20.40;65.80
45283;DHT22;31023;44.994;1.796;2024-03-17T13:34:24;20.50;67.90
45283;DHT22;31023;44.994;1.796;2024-03-17T13:36:53;20.40;69.60
45283;DHT22;31023;44.994;1.796;2024-03-17T13:39:19;20.10;66.00
45283;DHT22;31023;44.994;1.796;2024-03-17T13:41:47;20.10;67.30
45283;DHT22;31023;44.994;1.796;2024-03-17T13:44:12;20.00;67.90
45283;DHT22;31023;44.994;1.796;2024-03-17T13:46:38;20.00;70.60
45283;DHT22;31023;44.994;1.796;2024-03-17T13:49:07;19.80;72.40
45283;DHT22;31023;44.994;1.796;2024-03-17T13:51:34;19.80;73.30
45283;DHT22;31023;44.994;1.796;2024-03-17T13:53:59;20.10;73.50
45283;DHT22;31023;44.994;1.796;2024-03-17T13:56:26;20.30;69.90
45283;DHT22;31023;44.994;1.796;2024-03-17T13:58:52;20.50;68.30
45283;DHT22;31023;44.994;1.796;2024-03-17T14:01:17;20.40;70.50
45283;DHT22;31023;44.994;1.796;2024-03-17T14:03:43;20.30;72.40
45283;DHT22;31023;44.994;1.796;2024-03-17T14:06:09;20.00;70.90
45283;DHT22;31023;44.994;1.796;2024-03-17T14:08:34;19.80;73.20
45283;DHT22;31023;44.994;1.796;2024-03-17T14:11:03;19.80;72.50
45283;DHT22;31023;44.994;1.796;2024-03-17T14:13:32;19.60;71.60
45283;DHT22;31023;44.994;1.796;2024-03-17T14:15:57;19.60;70.30
45283;DHT22;31023;44.994;1.796;2024-03-17T14:18:24;19.70;73.70
45283;DHT22;31023;44.994;1.796;2024-03-17T14:20:50;19.50;73.50
45283;DHT22;31023;44.994;1.796;2024-03-17T14:23:18;19.30;71.20
45283;DHT22;31023;44.994;1.796;2024-03-17T14:25:43;19.30;70.70
45283;DHT22;31023;44.994;1.796;2024-03-17T14:28:09;19.20;72.60
45283;DHT22;31023;44.994;1.796;2024-03-17T14:30:34;19.30;73.90
45283;DHT22;31023;44.994;1.796;2024-03-17T14:33:00;19.30;73.20
45283;DHT22;31023;44.994;1.796;2024-03-17T14:35:26;19.50;72.20
45283;DHT22;31023;44.994;1.796;2024-03-17T14:37:55;19.40;72.50
45283;DHT22;31023;44.994;1.796;2024-03-17T14:40:23;19.40;72.80
45283;DHT22;31023;44.994;1.796;2024-03-17T14:42:49;19.50;71.60
45283;DHT22;31023;44.994;1.796;2024-03-17T14:45:16;19.50;70.90
45283;DHT22;31023;44.994;1.796;2024-03-17T14:47:41;19.60;72.30
45283;DHT22;31023;44.994;1.796;2024-03-17T14:50:08;19.70;69.90
45283;DHT22;31023;44.994;1.796;2024-03-17T14:52:33;19.60;72.50
45283;DHT22;31023;44.994;1.796;2024-03-17T14:55:00;19.40;75.70
45283;DHT22;31023;44.994;1.796;2024-03-17T14:57:25;19.20;74.00
45283;DHT22;31023;44.994;1.796;2024-03-17T14:59:51;19.20;73.30
45283;DHT22;31023;44.994;1.796;2024-03-17T15:02:17;19.20;75.60
45283;DHT22;31023;44.994;1.796;2024-03-17T15:04:42;19.10;75.90
45283;DHT22;31023;44.994;1.796;2024-03-17T15:07:08;19.00;75.30
45283;DHT22;31023;44.994;1.796;2024-03-17T15:09:34;18.90;75.10
45283;DHT22;31023;44.994;1.796;2024-03-17T15:12:00;18.90;75.10
45283;DHT22;31023;44.994;1.796;2024-03-17T15:14:28;19.10;76.50
45283;DHT22;31023;44.994;1.796;2024-03-17T15:16:54;19.00;76.90
45283;DHT22;31023;44.994;1.796;2024-03-17T15:19:19;19.30;75.70
45283;DHT22;31023;44.994;1.796;2024-03-17T15:21:45;19.40;74.90
45283;DHT22;31023;44.994;1.796;2024-03-17T15:24:10;19.40;73.70
45283;DHT22;31023;44.994;1.796;2024-03-17T15:26:36;19.50;74.80
45283;DHT22;31023;44.994;1.796;2024-03-17T15:29:02;19.50;75.90
45283;DHT22;31023;44.994;1.796;2024-03-17T15:31:31;19.60;73.70
45283;DHT22;31023;44.994;1.796;2024-03-17T15:33:57;19.60;72.70
45283;DHT22;31023;44.994;1.796;2024-03-17T15:36:23;19.60;72.90
45283;DHT22;31023;44.994;1.796;2024-03-17T15:38:51;19.60;72.80
45283;DHT22;31023;44.994;1.796;2024-03-17T15:41:17;19.40;73.50
45283;DHT22;31023;44.994;1.796;2024-03-17T15:43:43;19.40;72.10
45283;DHT22;31023;44.994;1.796;2024-03-17T15:46:11;19.20;70.50
45283;DHT22;31023;44.994;1.796;2024-03-17T15:48:38;19.10;71.00
45283;DHT22;31023;44.994;1.796;2024-03-17T15:51:03;19.20;70.60
45283;DHT22;31023;44.994;1.796;2024-03-17T15:53:29;19.10;69.60
45283;DHT22;31023;44.994;1.796;2024-03-17T15:58:20;19.10;72.70